Search for airport 
image banner adimage banner adimage banner ad
image banner ad

6PA5 - Botsford Aerodrome

Located in Shippensburg, United States

ICAO - 6PA5, IATA -

Data provided by Airmate  

General information

Coordinates: N40°6'48" W77°27'15"
Elevation is 615 feet MSL.
Magnetic variation is -10° East
View others Airports in Pennsylvania

Operational data

Special qualification required
Current time UTC:
Current local time:
METAR: KHGR 071153Z 32004KT 10SM BKN070 10/06 A2989 RMK AO2 RAB17E26 SLP132 P0000 60000 T01000056 10106 20078 56002
View NOTAMs / SUP AIP / TFR affecting this airport [VIEW]
Communications frequencies: [VIEW]

Runways:

RWY identifierQFULength (ft)Width (ft)SurfaceLDA (ft)
04240030ASPH
22240030ASPH

Airport contact information

Address: Shippensburg United States

Satellite view of 6PA5